Amargosa Valley, Nevada Weather observations

Data are for observation ending at time listed.
 Day   Time    Ave.   Ave.  Ave.  Vector   Max.   Stn.    Total    Solar   Ave.  
  of    of     Air    Rel.  Wind   Wind    Wind   Baro.  Precip.   Rad.    Soil  
Year   Day     Temp.  Hum.  Speed  Dir.    Gust   Pres.                    Temp. 
2014   (PST)    F      %     mph   deg.    mph     mb.     in.     W/m2     F   
------------------------------------------------------------------------------
 210    9:00   85.1    36    1.7   321      6.4   934.0    0.00     675    89.0
 210    9:10   85.7    35    2.8   270     10.4   934.0    0.00     698    88.9
 210    9:20   86.5    34    2.3   232      7.9   934.0    0.00     723    88.9
 210    9:30   85.9    34    4.0   296      9.5   934.0    0.00     749    88.9
 210    9:40   86.6    33    2.2    46      4.7   933.9    0.00     757    88.9
 210    9:50   87.0    33    3.6   236      8.0   933.8    0.00     776    89.0
 210   10:00   88.6    31    2.8   294     13.2   933.8    0.00     806    89.0
 210   10:10   88.2    32    2.3   310      5.8   933.8    0.00     807    89.0
 210   10:20   88.9    31    2.0   230      8.2   933.7    0.00     851    89.0
 210   10:30   89.7    29    2.7   283      7.7   933.6    0.00     839    89.1
 210   10:40   89.3    30    4.0   275     10.3   933.4    0.00     863    89.1
 210   10:50   90.1    29    2.9   358      8.9   933.3    0.00     857    89.2
 210   11:00   89.6    30    3.0    25      7.7   933.2    0.00     865    89.2
 210   11:10   90.3    29    4.0   299     13.5   933.1    0.00     935    89.3
 210   11:20   90.6    28    2.5   336     10.8   933.0    0.00     938    89.3
 210   11:30   90.6    29    3.7   345     11.8   933.0    0.00     843    89.4
 210   11:40   91.1    28    4.4   296     10.6   932.9    0.00     878    89.5
 210   11:50   91.7    28    3.9   304     11.8   932.7    0.00     924    89.6
 210   12:00   91.9    27    3.5   312      8.4   932.7    0.00     939    89.7
 210   12:10   92.6    28    3.9   272     11.1   932.6    0.00     958    89.8
 210   12:20   92.8    27    2.8   321      7.4   932.5    0.00     964    90.0
 210   12:30   93.0    26    4.5   263     11.2   932.3    0.00     993    90.1
 210   12:40   93.7    26    3.9   304     10.2   932.2    0.00     936    90.3
 210   12:50   94.6    25    2.6     2     11.1   932.1    0.00     898    90.4
 210   13:00   94.2    25    2.7    31      7.4   932.0    0.00     757    90.6
 210   13:10   94.5    25    3.6   345      9.2   931.8    0.00     965    90.8
 210   13:20   95.4    24    2.5   347      7.2   931.7    0.00     965    91.0
 210   13:30   96.3    24    2.9   327      8.6   931.7    0.00     791    91.3
 210   13:40   94.9    24    4.6   309     12.4   931.6    0.00     918    91.6
 210   13:50   95.5    24    2.7   214      9.5   931.5    0.00     730    91.8
 210   14:00   95.2    24    3.7   358      8.3   931.4    0.00     528    92.1
 210   14:10   94.1    25    2.1     5      8.6   931.3    0.00     182    92.4
 210   14:20   94.3    25    2.4     4      6.1   931.1    0.00     187    92.7
 210   14:30   94.5    25    2.5    61      6.4   930.9    0.00     526    93.0
 210   14:40   94.9    24    2.2    72      5.6   930.8    0.00     286    93.3
 210   14:50   94.4    24    1.9   320      4.8   930.7    0.00     222    93.6
 210   15:00   94.7    24    3.0    39     10.0   930.6    0.00     524    93.8
 210   15:10   95.1    24    2.1    54      9.3   930.5    0.00     621    94.2
 210   15:20   95.1    24    1.6    49     10.1   930.4    0.00     268    94.4
 210   15:30   94.7    24    3.9    94      8.8   930.2    0.00     154    94.6
 210   15:40   94.5    24    2.3   334      7.2   930.1    0.00     165    94.8
 210   15:50   95.2    23    1.1     7      3.7   930.0    0.00     117    95.0
 210   16:00   95.4    23    2.5    88      6.9   929.8    0.00      71    95.1
 210   16:10   95.2    23    2.7   104      6.4   929.7    0.00      66    95.3
 210   16:20   95.4    22    3.0   304      7.6   929.5    0.00      65    95.4
 210   16:30   95.8    22    1.6   281      4.0   929.4    0.00      68    95.5
 210   16:40   95.9    21    0.6   284      2.9   929.2    0.00      74    95.6
 210   16:50   96.2    21    0.9   342      3.3   929.0    0.00      99    95.7
 210   17:00   96.7    20    1.7    13      6.0   928.9    0.00     118    95.8
 210   17:10   97.0    20    2.4   331      7.5   928.8    0.00     129    95.8
 210   17:20   96.6    20    2.4   352      8.5   928.7    0.00      98    95.9
 210   17:30   96.4    20    2.7   105      6.5   928.8    0.00      75    95.9
 210   17:40   97.0    19    1.9   345      6.6   928.7    0.00      58    96.0
 210   17:50   97.4    19    1.6     4      5.6   928.7    0.00      57    96.0
 210   18:00   96.6    20    3.5    65      9.4   928.7    0.00      64    96.0
 210   18:10   95.8    21    3.4    63      7.7   928.7    0.00      40    96.0
 210   18:20   95.8    21    6.1    90      9.0   928.7    0.00      29    96.1
 210   18:30   95.2    21    4.2    98      7.1   928.7    0.00      17    96.1
 210   18:40   95.0    21    4.4   124      6.1   928.7    0.00      15    96.1
 210   18:50   94.6    22    3.7   122      5.0   928.7    0.00       9    96.1
 210   19:00   94.4    22    3.2   147      5.1   928.7    0.00       3    96.1
 210   19:10   93.7    22    3.3   142      4.7   928.8    0.00       2    96.1
 210   19:20   93.2    22    3.7   126      5.0   928.8    0.00       0    96.1
 210   19:30   93.0    22    3.5   123      5.3   928.9    0.00       0    96.1
 210   19:40   92.5    23    3.5   121      4.9   928.9    0.00       0    96.1
 210   19:50   92.4    23    2.9    96      3.7   929.0    0.00       0    96.1
 210   20:00   92.1    23    2.8   113      4.2   929.2    0.00       0    96.1
 210   20:10   91.2    24    1.5   136      2.3   929.3    0.00       0    96.0
 210   20:20   90.7    24    0.7   124      1.6   929.4    0.00       0    96.0
 210   20:30   90.0    25    0.0   122      0.6   929.5    0.00       0    96.0
 210   20:40   88.9    26    0.5    21      2.2   929.6    0.00       0    96.0
 210   20:50   88.5    26    0.7    20      1.5   929.7    0.00       0    95.9
 210   21:00   88.3    26    0.4   351      1.2   929.6    0.00       0    95.9
 210   21:10   87.9    27    0.5   322      1.5   929.7    0.00       0    95.8
 210   21:20   87.7    28    0.2   333      0.9   929.7    0.00       0    95.8
 210   21:30   86.9    27    0.6    19      2.3   929.8    0.00       0    95.7
 210   21:40   86.7    27    1.5    24      3.2   929.8    0.00       0    95.6
 210   21:50   85.7    27    2.2    31      4.1   929.8    0.00       0    95.6
 210   22:00   85.3    28    0.7    20      2.6   929.8    0.00       0    95.5
 210   22:10   84.4    30    0.8    10      3.3   929.8    0.00       0    95.5
 210   22:20   83.7    32    2.4    26      3.8   929.7    0.00       0    95.4
 210   22:30   83.7    32    2.8    30      4.5   929.6    0.00       0    95.3
 210   22:40   83.9    32    2.2    36      4.5   929.5    0.00       0    95.3
 210   22:50   84.4    32    2.4    34      4.0   929.5    0.00       0    95.2
 210   23:00   84.1    32    2.1    30      3.6   929.5    0.00       0    95.1
 210   23:10   83.4    32    0.6    13      2.1   929.5    0.00       0    95.1
 210   23:20   82.5    34    0.6   352      2.8   929.4    0.00       0    95.0
 210   23:30   82.5    34    0.6    12      1.9   929.4    0.00       0    94.9
 210   23:40   82.6    34    0.6    13      2.4   929.3    0.00       0    94.8
 210   23:50   81.9    35    0.8   328      2.3   929.3    0.00       0    94.8
 211    0:00   81.2    36    0.7   351      2.4   929.3    0.00       0    94.7
 211    0:10   81.7    36    1.1    15      3.0   929.2    0.00       0    94.7
 211    0:20   81.5    37    2.4    25      4.5   929.2    0.00       0    94.6
 211    0:30   81.5    38    1.9    25      3.7   929.3    0.00       0    94.5
 211    0:40   81.2    38    3.0    30      5.0   929.2    0.00       0    94.4
 211    0:50   81.1    38    2.4     1      5.3   929.1    0.00       0    94.4
 211    1:00   80.9    38    0.6   341      1.7   929.2    0.00       0    94.3
 211    1:10   80.6    38    1.5    18      5.8   929.2    0.00       0    94.2
 211    1:20   81.0    38    5.0    24     10.2   929.2    0.00       0    94.1
 211    1:30   81.9    37    5.3    32      9.5   929.4    0.00       0    94.0
 211    1:40   82.0    36    3.6    31      6.3   929.4    0.00       0    94.0
 211    1:50   82.5    35    3.8    30      6.9   929.4    0.00       0    93.9
 211    2:00   82.7    34    2.9    22      5.6   929.5    0.00       0    93.8
 211    2:10   83.3    34    2.9    17      7.5   929.5    0.00       0    93.7
 211    2:20   83.6    34    3.8    23      7.1   929.4    0.00       0    93.7
 211    2:30   83.5    34    4.0    26      7.2   929.5    0.00       0    93.6
 211    2:40   83.4    34    2.4    22      5.0   929.5    0.00       0    93.5
 211    2:50   83.4    34    2.0    32      4.5   929.5    0.00       0    93.4
 211    3:00   82.5    35    2.1   240      5.7   929.6    0.00       0    93.3
 211    3:10   81.9    36    1.6   231      4.8   929.8    0.00       0    93.3
 211    3:20   81.3    36    3.8   292      8.1   929.8    0.00       0    93.2
 211    3:30   81.6    36    2.8   311      6.4   929.8    0.00       0    93.1
 211    3:40   81.1    36    0.6   316      2.3   929.8    0.00       0    93.1
 211    3:50   80.6    37    0.4   322      2.0   929.8    0.00       0    93.0
 211    4:00   80.4    37    0.4   337      1.7   929.7    0.00       0    93.0
 211    4:10   79.5    37    1.1   335      2.2   929.6    0.00       0    92.9
 211    4:20   79.4    37    1.2   340      2.6   929.5    0.00       0    92.8
 211    4:30   80.3    36    0.7     3      2.5   929.5    0.00       0    92.7
 211    4:40   80.6    36    0.8   358      3.3   929.6    0.00       0    92.6
 211    4:50   80.2    37    0.3   349      1.2   929.7    0.00       3    92.6
 211    5:00   80.1    37    0.9    17      3.4   929.8    0.00       6    92.5
 211    5:10   79.3    38    1.3    16      3.3   929.9    0.00      11    92.4
 211    5:20   79.4    38    2.4    19      4.8   930.0    0.00      16    92.4
 211    5:30   80.5    37    3.6    23      5.9   930.2    0.00      24    92.3
 211    5:40   80.9    37    2.4    15      4.9   930.3    0.00      73    92.2
 211    5:50   81.3    36    3.9    24      6.7   930.5    0.00     103    92.1
 211    6:00   81.7    36    1.9    11      5.5   930.6    0.00     135    92.1
 211    6:10   83.0    35    1.1   353      5.3   930.7    0.00     164    92.0
 211    6:20   84.3    33    1.0   350      2.5   930.8    0.00     194    91.9
 211    6:30   85.5    32    1.0     1      3.5   930.9    0.00     224    91.8
 211    6:40   86.6    31    1.5     2      4.1   931.0    0.00     255    91.7
 211    6:50   86.8    31    1.5     5      6.1   931.2    0.00     287    91.7
 211    7:00   87.1    30    2.5    18      6.1   931.4    0.00     319    91.6
 211    7:10   87.3    29    2.5    22      5.6   931.4    0.00     352    91.5
 211    7:20   88.3    28    2.1    39      5.1   931.4    0.00     384    91.5
 211    7:30   89.9    27    1.7    48      4.5   931.5    0.00     414    91.4
 211    7:40   91.0    25    2.1    74      5.7   931.6    0.00     442    91.4
 211    7:50   91.5    24    2.2    26      4.3   931.6    0.00     475    91.3
 211    8:00   92.4    24    1.4   108      6.2   931.7    0.00     505    91.3
 211    8:10   92.6    24    2.8   313      7.0   931.7    0.00     532    91.2
 211    8:20   91.9    24    2.9   303      8.8   931.7    0.00     560    91.2
 211    8:30   92.1    24    3.6   310      7.5   931.6    0.00     588    91.2
 211    8:40   92.4    23    3.2   303      7.2   931.6    0.00     615    91.2
 211    8:50   93.1    23    2.5   296      9.8   931.7    0.00     641    91.2

Return to Amargosa Valley, Nevada graphs page.


Western Regional Climate Center,wrcc@dri.edu